Prochaines Courses

Connexion

VTT

ODYSSEE VTT du 02/06/13 (Réelle 24)
Rang Dossard Nom Prénom Temps Cat Rang Cat Ecart Ecart Cat Club Vitesse Km/h Temps au Km
1 225 BOULOGNE Jérémy CUCHEVAL Mathias 00:52:46 MASCULINS 1 00:00:00 00:00:00 LES FLAHUTES 27,290 02:12
2 295 MASSON Mickael CUCHEVAL Samuel 00:56:05 MASCULINS 2 00:03:19 00:03:19 MARCKATHLON LYS CALAIS TRI 25,676 02:20
3 233 HERTAULT Ludovic BIGNOT Christophe 00:58:00 VETERANS 1 00:05:14 00:00:00 IMS RETAIL AGILITY 24,828 02:25
4 213 BOUCLET Bastien HURTEL David 00:58:31 MASCULINS 3 00:05:45 00:05:45 JARDINERIE TULIPE 24,608 02:26
5 287 FLINOIS Anthony PCZYBYLSKI Guillaume 00:58:32 MASCULINS 4 00:05:46 00:05:46 PEDAL DAMN IT 24,601 02:26
6 275 DINIELLE Arnaud LECARPENTIER Fabrice 00:58:48 MASCULINS 5 00:06:02 00:06:02 TEAM MANOSPORT 1 24,490 02:27
7 200 LANDRECIES Loic CROGIEZ José 01:00:31 MASCULINS 6 00:07:45 00:07:45 VELOLAND BOULOGNE 23,795 02:31
8 257 LEBLANC Maxime CLETY François 01:01:26 MASCULINS 7 00:08:40 00:08:40 MADE IN RAID 23,440 02:34
9 203 SUEUR Fabrice CARPENTIER Thierry 01:02:38 VETERANS 2 00:09:52 00:04:38 SPORT EVASION DES 2 CAPS 22,991 02:37
10 214 DANEL Marc André QUEVAL Jean-Jacques 01:03:08 VETERANS 3 00:10:22 00:05:08 MARCKATHLON TEAM 22,809 02:38
11 221 LECOUTRE Thierry RIFFARD Jean 01:03:34 VETERANS 4 00:10:48 00:05:34 OTN TEAM VETERANS 22,653 02:39
12 286 LELEU Laëtitia GOURDAIN Eric 01:03:54 MIXTES 1 00:11:08 00:00:00 LES CRAPULES 22,535 02:40
13 279 LOEUILLIEUX Stéphane LACROIX Olivier 01:04:03 MASCULINS 8 00:11:17 00:11:17 LE DRAPEAU D OPALE TRAIL NATURE 22,482 02:40
14 252 BOURGUIGNON Vincent SUEUR Dominique 01:04:23 MASCULINS 9 00:11:37 00:11:37 TEAM TRAIL 1 22,366 02:41
15 288 DEGARDIN Laurent PARENT Blaise 01:04:41 MASCULINS 10 00:11:55 00:11:55 TOP GUN 22,262 02:42
16 267 BIERNACKI Alexandre CLEMENT Damien 01:04:44 MASCULINS 11 00:11:58 00:11:58 TRAITHLON CLUB BOULONNAIS 22,245 02:42
17 289 DELAY Bastien SAISON Antoine 01:05:37 JEUNES 1 00:12:51 00:00:00 STAR FIRE 21,946 02:44
18 201 CARRE Pauline QUEVAL Charles Hubert 01:05:40 MIXTES 2 00:12:54 00:01:46 LILLE 2 LA TENTATION 21,929 02:44
19 204 FRANCOIS Gilbert ANDRIEUX Dimitri 01:05:40 MASCULINS 12 00:12:54 00:12:54 LYS CALAIS TRIATHLON PÈRE ET FILS 21,929 02:44
20 245 BLOND Céline BLOND Grégory 01:06:35 MIXTES 3 00:13:49 00:02:41 JULBO 1 21,627 02:46
21 210 DUHAMEL Maxime CAFFIER Morgan 01:06:52 MASCULINS 13 00:14:06 00:14:06 LES FREE RAIDERS 21,535 02:47
22 242 BLANPAIN Jean-Pierre COMBET Philippe 01:07:05 VETERANS 5 00:14:19 00:09:05 LES GRAVELINOIS 21,466 02:48
23 274 LEFEBVRE Julien BREQUEVILLE Samuel 01:07:22 MASCULINS 14 00:14:36 00:14:36 TOUQUET OPALE ATHETISME 21,376 02:48
24 278 THIBAULT Olivier LECLERCQ Richard 01:07:24 MASCULINS 15 00:14:38 00:14:38 LES BARONS BERCKOIS 21,365 02:49
25 299 LEGRAND Jean Serge VANDERZYPPE Ludovic 01:07:29 VETERANS 6 00:14:43 00:09:29 SAV 21,339 02:49
26 219 AIGOUY Damien CUCHEVAL Florence 01:08:11 MIXTES 4 00:15:25 00:04:17 LYS CALAIS TRIATHLON 21,120 02:50
27 226 MILLE Laurent MATRINGHEN Tony 01:08:22 MASCULINS 16 00:15:36 00:15:36 LES JAMBES EN MOUSSE 21,063 02:51
28 208 VANDAELE Jérome MERLIN Nicolas 01:08:27 MASCULINS 17 00:15:41 00:15:41 LES BIGORNOS 21,037 02:51
29 277 SCOBRY Anthony DEQUEKER Vincent 01:08:39 MASCULINS 18 00:15:53 00:15:53 CANYON'S BROTHERS 20,976 02:52
30 95 DUCROCQ Antoine MILLE Sébastien 01:08:54 MASCULINS 19 00:16:08 00:16:08 LES BOFS 20,900 02:52
31 202 MATHIEU Damien BIZ Delphine 01:08:54 MIXTES 5 00:16:08 00:05:00 GSO DUNKERQUE RAID AVENTURE 20,900 02:52
32 235 VANDJOUR Philippe VANDJOUR Laurence 01:08:57 MIXTES 6 00:16:11 00:05:03 BISONS FUTES 20,885 02:52
33 250 LECOCQ Chriss LAPOTRE Médéric 01:09:00 MASCULINS 20 00:16:14 00:16:14 LES BRAS CASSES 20,870 02:53
34 273 LOEUILLIEUX Pierre LOEUILLIEUX Franck 01:09:46 MASCULINS 21 00:17:00 00:17:00 BIG BROTHERS 20,640 02:54
35 296 LHOMEL Antoine DEBAS Gérard 01:10:04 MASCULINS 22 00:17:18 00:17:18 FOR EVER 20,552 02:55
36 237 DEBRUXELLES Sébastien SAISON Stéphane 01:10:16 MASCULINS 23 00:17:30 00:17:30 LES BOFS 20,493 02:56
37 284 PORTEMONT Romain PORTEMONT Guillaume 01:10:21 MASCULINS 24 00:17:35 00:17:35 LES PETITS MINOUS 20,469 02:56
38 255 BIENIOSZEK Fabrice GLASSIER François 01:10:31 VETERANS 7 00:17:45 00:12:31 MEME PAS PEUR 20,421 02:56
39 216 BERNARD Quentin PIQUET Maxime 01:11:08 MASCULINS 25 00:18:22 00:18:22 LES CASCADEURS 20,244 02:58
40 259 LEFEBVRE Sébastien ESTAMPES François 01:11:30 MASCULINS 26 00:18:44 00:18:44 TEAM RAIDEUR 20,140 02:59
41 262 TETARD Christophe HODIQUE Hervé 01:11:48 VETERANS 8 00:19:02 00:13:48 LES POMPIERS DE DEFF 20,056 03:00
42 280 DIEUSET Anthony NOURTIER Nicolas 01:12:04 MASCULINS 27 00:19:18 00:19:18 OPALE TRAIL NATURE 19,981 03:00
43 282 BLAEUCET Ludovic PRUVOST Nicolas 01:12:06 MASCULINS 28 00:19:20 00:19:20 GARMIN BROTHERS 19,972 03:00
44 220 COEUGNET Manuel GAVEL Grégory 01:12:07 MASCULINS 29 00:19:21 00:19:21 SPORT EVASION JEUNES 19,968 03:00
45 256 LOBEZ Baptiste 0 0 01:12:08 MASCULINS 30 00:19:22 00:19:22 CH'TI BADDOW 19,963 03:00
46 224 LEVEL Fabien LEVEL Lina 01:12:12 MIXTES 7 00:19:26 00:08:18 LES GIVRES DU DRAPEAU 19,945 03:00
47 251 DEFACHELLE Geoffrey JACQUEMOD Mickael 01:12:36 MASCULINS 31 00:19:50 00:19:50 TEAM MANOSPORT 19,835 03:02
48 298 DUCANDAS Franck DUMONT Emmanuel 01:12:38 MASCULINS 32 00:19:52 00:19:52 LES SKATEURS 19,826 03:02
49 268 LESAGE Marc HURTH Denis 01:12:44 MASCULINS 33 00:19:58 00:19:58 UNSA POLICE 19,798 03:02
50 254 SCIGACZ Jérome THUILLIER Patrick 01:12:49 MASCULINS 34 00:20:03 00:20:03 COURIR A LA FOLIE 1 19,776 03:02
51 300 BELLEMBOIS Stéphane DELCLOY Olivier 01:12:52 VETERANS 9 00:20:06 00:14:52 SAV 2 19,762 03:02
52 205 DELITTE Jérémy LAMOUR Maxime 01:12:53 MASCULINS 35 00:20:07 00:20:07 LES ZLATANNEURS 19,758 03:02
53 232 BALY Patrick BALY Adrien 01:13:41 MASCULINS 36 00:20:55 00:20:55 TEAM BALY 19,543 03:04
54 217 BEAUSSART Sébastien FLOURY Grégory 01:13:44 MASCULINS 37 00:20:58 00:20:58 TWIX 19,530 03:04
55 229 WARGNIER Philippe DUBOIS Tony 01:13:45 VETERANS 10 00:20:59 00:15:45 LES INCREVABLES DU LYS 19,525 03:04
56 270 LEPETZ Olivier WAREMBOURG Philippe 01:13:52 MASCULINS 38 00:21:06 00:21:06 TEAM AIRSPIRE 19,495 03:05
57 291 LOEUILLEUX Bertrand VASSEUR Matthieu 01:13:56 MASCULINS 39 00:21:10 00:21:10 LES RETARDATAIRES 19,477 03:05
58 218 GAVOIS Cyril MONTIGNY Dimitri 01:13:58 MASCULINS 40 00:21:12 00:21:12 SPORT EVASION DES 2 CAPS LES GAMINS 19,468 03:05
59 283 COUTURE Sandra HALLUIN Jérémie 01:13:58 MIXTES 8 00:21:12 00:10:04 XTREM RIDERS 19,468 03:05
60 272 CHEMELLO Stéphane MACHION Thibault 01:14:54 MASCULINS 41 00:22:08 00:22:08 LES VEDETTES 19,226 03:07
61 98 SPILLIAERT Florence PRUVOST Yannick 01:15:04 MIXTES 9 00:22:18 00:11:10 DANS LE SPEED 19,183 03:08
62 228 LEJOSNE Luc DENGLOS Ludovic 01:15:22 VETERANS 11 00:22:36 00:17:22 TARFIA BOYS 19,107 03:08
63 94 BAHEUX Jackie BAHEUX Florian 01:16:01 MASCULINS 42 00:23:15 00:23:15 LES LONGUEVILLOIS 18,943 03:10
64 234 MARTIN Jean-Michel MARTIN Andy 01:16:11 MASCULINS 43 00:23:25 00:23:25 LES MARTINUS 18,902 03:10
65 297 POURRE Fabienne MASSON Annick 01:16:12 FEMININES 1 00:23:26 00:00:00 LES FILLES DU LYS 18,898 03:11
66 223 TELLIER Romain DEBETTE Florian 01:16:17 MASCULINS 44 00:23:31 00:23:31 LES FANTASTIQUES 18,877 03:11
67 244 ROSEY Christophe DEWEZ Julien 01:16:20 MASCULINS 45 00:23:34 00:23:34 LES MOUSQUETAIRES 18,865 03:11
68 96 LECOINTE Nicolas MANNESSIEZ Fabien 01:16:35 MASCULINS 46 00:23:49 00:23:49 LES RAMEURS 18,803 03:11
69 236 LEBAS Eric MACQUET Olivier 01:16:41 VETERANS 12 00:23:55 00:18:41 LES CALMOS 18,779 03:12
70 293 LEBEC Mickael JOLLANT Maxime 01:16:49 MASCULINS 47 00:24:03 00:24:03 TUTY FRUTY 18,746 03:12
71 231 BIZET Franck RUIZ Joseph 01:17:23 VETERANS 13 00:24:37 00:19:23 LES GRIZZLYS 18,609 03:13
72 239 MAQUINGHEN Christophe DEFOSSE Alexandre 01:17:54 MASCULINS 48 00:25:08 00:25:08 CHOUCHOU ET LOULOU 18,485 03:15
73 264 DELATTRE Guillaume RENARD Julien 01:18:40 MASCULINS 49 00:25:54 00:25:54 LES BEAUFS 18,305 03:17
74 209 LEVEL Eddy DUFOUR Emmanuel 01:19:18 MASCULINS 50 00:26:32 00:26:32 VAS Y PEPERE 18,159 03:18
75 276 BAREZ Cédric BAREZ Delphine 01:19:23 MIXTES 10 00:26:37 00:15:29 DUNKERQUE RAID AVENTURE B 18,140 03:18
76 271 DAGNEAUX Armel BODART Jean François 01:19:47 MASCULINS 51 00:27:01 00:27:01 THE FALL GUY 18,049 03:19
77 247 CAPDEVILLA Catherine LEROUX Guillaume 01:20:35 MIXTES 11 00:27:49 00:16:41 TEAM TRAIL 62 MIXTES 17,870 03:21
78 269 SUEUR Lise BRASSEUR Louis 01:20:59 MIXTES 12 00:28:13 00:17:05 LES BRASSEUR'S 17,781 03:22
79 240 CARDON Florian DOCQUOIS Frédéric 01:21:20 MASCULINS 52 00:28:34 00:28:34 LES PTITS CULS 17,705 03:23
80 246 WASIAK Richard GREMONT Anne 01:21:39 MIXTES 13 00:28:53 00:17:45 JULBO 2 17,636 03:24
81 215 RYCKEBUSCH Stéphane RYCKEBUSCH Marie 01:23:35 MIXTES 14 00:30:49 00:19:41 LA ZOUZOU TEAM 17,228 03:29
82 290 DELAY Mickael DELAY Caroline 01:23:38 MIXTES 15 00:30:52 00:19:44 UN DUO D'ENFER 17,218 03:29
83 249 CHOQUET Sébastien FALEMPIN James 01:23:55 MASCULINS 53 00:31:09 00:31:09 JAM ET SEB 17,160 03:30
84 207 KAHN Julie KAMINSKI Olivia 01:24:25 FEMININES 2 00:31:39 00:08:13 LES STELLIENNES 17,058 03:31
85 238 BOUVILLE Mélanie GUILBERT Aurélie 01:24:57 FEMININES 3 00:32:11 00:08:45 LES BACQUETTES 16,951 03:32
86 241 RADENNE Christophe KRONUS Joël 01:24:57 VETERANS 14 00:32:11 00:26:57 LES BOYS 16,951 03:32
87 263 HOLUIGUE Frédéric PIONTEK Fabrice 01:25:05 MASCULINS 54 00:32:19 00:32:19 LES COPAINS 16,925 03:33
88 248 ORY Nicolas COQUART Jérémy 01:25:48 MASCULINS 55 00:33:02 00:33:02 THE FOREST BOLT 16,783 03:35
89 97 GUYOT Fabien JOURDAIN Charles 01:25:59 MASCULINS 56 00:33:13 00:33:13 8 MILE 16,747 03:35
90 212 LELEU Thomas GIRARD Adrien 01:26:27 MASCULINS 57 00:33:41 00:33:41 LES MAZMOKETS 16,657 03:36
91 206 GODART Valérie DEPLECHIN David 01:28:24 MIXTES 16 00:35:38 00:24:30 TURTLE TEAM 16,290 03:41
92 243 REYMBAUT Jean-Pierre BAILLIEUL Jérémy 01:28:28 MASCULINS 58 00:35:42 00:35:42 ARSOUILLE-BRILOU 16,277 03:41
93 266 THOMAS Caroline CHARLON Anne 01:28:41 FEMININES 4 00:35:55 00:12:29 LES DUNKERQUOISES 16,238 03:42
94 261 KUSCHNICK Fabrice LAIDEZ Jonathan 01:29:45 MASCULINS 59 00:36:59 00:36:59 LES TIGRES DESVROIS 16,045 03:44
95 222 ZAJAC Christel CLETON Eric 01:29:47 MIXTES 17 00:37:01 00:25:53 LES BUDDIES 16,039 03:44
96 292 SAUVAGE Florian CLERCQ Victor 01:30:01 JEUNES 2 00:37:15 00:24:24 V'LA ENFIN LES RAIDES DINGUES 15,997 03:45
97 281 COINON Alexandre DECROOCQ Marie 01:31:09 MIXTES 18 00:38:23 00:27:15 LES BACHIBOUZOUKS 15,798 03:48
98 227 DELCLOQUE Philippe CANEL Benoit 01:32:06 MASCULINS 60 00:39:20 00:39:20 LES TOURISTES 15,635 03:50
99 294 LANCE Freddy VASSEUR Sylvain 01:32:38 MASCULINS 61 00:39:52 00:39:52 FOUTU TEAM 15,545 03:52
100 211 SUEUR Louis SCABAILLIE François 01:32:44 MASCULINS 62 00:39:58 00:39:58 LES INCONNUS 15,528 03:52
101 258 VERMOOTE Frédéric VERMOOTE Christèle 01:33:38 MIXTES 19 00:40:52 00:29:44 OPALE SPORT SANTE 15,379 03:54
102 285 LEBRUN Sébastien VASSEUR Jean-Loup 01:34:49 MASCULINS 63 00:42:03 00:42:03 LES PISSE 4 GOUTTES 15,187 03:57
103 253 CHARPENTIER Cécile ELZBACH Aurélie 01:55:32 FEMININES 5 01:02:46 00:39:20 SPORT EVASION DES 2 CAPS 12,464 04:49
104 265 IMBERT Stéphanie DAJON Rachel 01:59:57 FEMININES 6 01:07:11 00:43:45 LES MALOUINES 12,005 05:00